Time;durP1;ratioP1;P1;durP2;ratioP2;P2;SDS_P1;SDS_P2;PMS_P1;PMS_P2;Temp;Humidity;BMP_temperature;BMP_pressure;BME280_temperature;BME280_humidity;BME280_pressure;Samples;Min_cycle;Max_cycle;Signal;HPM_P1;HPM_P2
2022/01/07 00:00:16;;;;;;;2.17;1.00;;;18.60;52.90;;;;;;5132268;27;20183;-80
2022/01/07 00:02:46;;;;;;;3.40;1.30;;;18.60;52.70;;;;;;5147858;27;20159;-80
2022/01/07 00:05:13;;;;;;;2.13;1.33;;;18.60;52.70;;;;;;5166799;27;20564;-80
2022/01/07 00:07:39;;;;;;;2.20;1.05;;;18.60;52.80;;;;;;5166001;27;20187;-80
2022/01/07 00:10:09;;;;;;;3.47;1.27;;;18.60;52.90;;;;;;5131487;27;20170;-80
2022/01/07 00:12:34;;;;;;;2.40;1.20;;;18.60;52.90;;;;;;5166038;27;20159;-80
2022/01/07 00:15:00;;;;;;;2.25;1.10;;;18.60;52.80;;;;;;5165433;27;20147;-80
2022/01/07 00:17:26;;;;;;;1.52;0.95;;;18.50;52.80;;;;;;5166209;27;20159;-80
2022/01/07 00:19:52;;;;;;;1.88;1.40;;;18.50;52.90;;;;;;5131594;27;20577;-80
2022/01/07 00:22:20;;;;;;;4.93;1.20;;;18.50;52.80;;;;;;5150470;27;20148;-80
2022/01/07 00:24:46;;;;;;;3.55;1.38;;;18.60;53.00;;;;;;5148710;27;20170;-80
2022/01/07 00:27:13;;;;;;;3.25;1.40;;;18.60;53.00;;;;;;5166479;27;20151;-81
2022/01/07 00:29:43;;;;;;;3.88;1.13;;;18.50;53.00;;;;;;5166309;27;20238;-80
2022/01/07 00:32:10;;;;;;;2.58;1.30;;;18.50;52.90;;;;;;5147980;27;20179;-80
2022/01/07 00:34:36;;;;;;;3.95;1.30;;;18.50;52.50;;;;;;5148817;27;20163;-81
2022/01/07 00:37:05;;;;;;;2.25;1.27;;;18.50;52.80;;;;;;5149499;27;20152;-80
2022/01/07 00:39:34;;;;;;;3.92;1.20;;;18.60;52.60;;;;;;5148880;27;20215;-80
2022/01/07 00:42:02;;;;;;;3.28;1.48;;;18.50;52.60;;;;;;5147901;27;20171;-80
2022/01/07 00:44:28;;;;;;;3.55;1.20;;;18.50;52.70;;;;;;5131538;27;20168;-80
2022/01/07 00:46:57;;;;;;;2.83;1.25;;;18.50;52.70;;;;;;5131024;27;20522;-80
2022/01/07 00:49:26;;;;;;;2.97;1.35;;;18.50;52.70;;;;;;5148267;27;20171;-80
2022/01/07 00:51:53;;;;;;;3.15;1.23;;;18.50;52.70;;;;;;5165321;27;20166;-80
2022/01/07 00:54:19;;;;;;;2.58;1.08;;;18.50;52.60;;;;;;5165503;27;20602;-80
2022/01/07 00:56:45;;;;;;;3.00;1.30;;;18.50;52.30;;;;;;5127773;28;20208;-80
2022/01/07 00:59:11;;;;;;;1.50;1.00;;;18.50;52.60;;;;;;5144520;27;20184;-80
2022/01/07 01:01:37;;;;;;;2.75;1.10;;;18.50;52.40;;;;;;5110953;28;20171;-81
2022/01/07 01:04:06;;;;;;;3.13;1.20;;;18.50;52.10;;;;;;5128089;28;20155;-80
2022/01/07 01:06:34;;;;;;;3.05;1.13;;;18.50;52.40;;;;;;5127447;28;20159;-80
2022/01/07 01:09:00;;;;;;;1.95;1.25;;;18.50;52.50;;;;;;5145300;27;20161;-80
2022/01/07 01:11:26;;;;;;;1.92;1.15;;;18.50;52.70;;;;;;5143945;27;20220;-80
2022/01/07 01:13:52;;;;;;;3.42;1.13;;;18.50;52.20;;;;;;5144461;27;20269;-80
2022/01/07 01:16:19;;;;;;;2.00;1.13;;;18.50;52.00;;;;;;5144670;27;20258;-80
2022/01/07 01:18:45;;;;;;;3.00;1.30;;;18.50;52.60;;;;;;5144165;27;20206;-80
2022/01/07 01:21:11;;;;;;;1.63;1.02;;;18.50;52.40;;;;;;5161989;27;20164;-80
2022/01/07 01:23:40;;;;;;;3.55;1.20;;;18.40;52.40;;;;;;5127840;28;20153;-80
2022/01/07 01:26:06;;;;;;;3.58;1.10;;;18.50;52.30;;;;;;5126654;28;20151;-80
2022/01/07 01:28:31;;;;;;;3.38;1.20;;;18.50;52.40;;;;;;5160250;27;20176;-82
2022/01/07 01:31:01;;;;;;;3.97;1.40;;;18.50;52.40;;;;;;5126882;28;20625;-80
2022/01/07 01:33:29;;;;;;;1.88;1.30;;;18.50;51.90;;;;;;5161036;27;20170;-80
2022/01/07 01:35:55;;;;;;;2.80;1.33;;;18.50;51.90;;;;;;5143933;27;20187;-80
2022/01/07 01:38:22;;;;;;;3.33;1.20;;;18.50;52.00;;;;;;5143669;27;20192;-80
2022/01/07 01:40:48;;;;;;;3.10;1.38;;;18.50;52.30;;;;;;5109422;28;20170;-80
2022/01/07 01:43:13;;;;;;;2.60;1.25;;;18.50;52.20;;;;;;5144111;27;20216;-80
2022/01/07 01:45:40;;;;;;;2.40;1.20;;;18.50;51.90;;;;;;5143567;27;20182;-81
2022/01/07 01:48:06;;;;;;;2.88;1.10;;;18.60;51.80;;;;;;5143462;27;20248;-81
2022/01/07 01:50:33;;;;;;;2.13;1.20;;;18.50;51.70;;;;;;5143924;27;20156;-81
2022/01/07 01:53:00;;;;;;;2.33;1.30;;;18.60;51.90;;;;;;5143677;27;20151;-80
2022/01/07 01:55:27;;;;;;;2.17;1.23;;;18.50;51.60;;;;;;5143642;27;20152;-80
2022/01/07 01:57:53;;;;;;;1.98;1.20;;;18.50;52.00;;;;;;5143419;27;20315;-80
2022/01/07 02:00:22;;;;;;;2.17;1.08;;;18.50;51.80;;;;;;5126462;28;20200;-80
2022/01/07 02:02:49;;;;;;;1.85;1.42;;;18.60;52.00;;;;;;5126725;28;20228;-80
2022/01/07 02:05:14;;;;;;;3.08;1.23;;;18.60;51.90;;;;;;5126568;28;20145;-80
2022/01/07 02:07:43;;;;;;;2.25;1.00;;;18.50;51.70;;;;;;5126302;28;20165;-80
2022/01/07 02:10:13;;;;;;;2.90;1.20;;;18.60;51.80;;;;;;5126667;28;20172;-79
2022/01/07 02:12:42;;;;;;;2.05;1.27;;;18.50;51.80;;;;;;5143182;27;20224;-80
2022/01/07 02:15:09;;;;;;;2.22;1.10;;;18.50;51.60;;;;;;5142859;27;20164;-80
2022/01/07 02:17:35;;;;;;;1.55;1.08;;;18.50;51.70;;;;;;5143348;27;20149;-80
2022/01/07 02:20:03;;;;;;;1.80;1.27;;;18.50;51.80;;;;;;5127041;28;20226;-80
2022/01/07 02:22:29;;;;;;;1.77;0.90;;;18.50;51.80;;;;;;5108689;28;20193;-80
2022/01/07 02:24:55;;;;;;;2.95;1.10;;;18.50;51.70;;;;;;5126150;28;20164;-80
2022/01/07 02:27:21;;;;;;;2.00;1.23;;;18.50;51.30;;;;;;5126411;28;20171;-80
2022/01/07 02:29:49;;;;;;;2.40;1.30;;;18.50;51.50;;;;;;5143561;27;20152;-80
2022/01/07 02:32:17;;;;;;;1.55;1.17;;;18.50;51.90;;;;;;5126373;28;20247;-80
2022/01/07 02:34:45;;;;;;;2.72;1.27;;;18.50;51.40;;;;;;5109271;28;20168;-80
2022/01/07 02:37:12;;;;;;;2.92;1.20;;;18.50;51.40;;;;;;5143452;27;20160;-80
2022/01/07 02:39:39;;;;;;;1.55;1.13;;;18.50;51.60;;;;;;5108956;28;20246;-80
2022/01/07 02:42:07;;;;;;;2.78;1.30;;;18.50;51.40;;;;;;5142873;27;20161;-80
2022/01/07 02:44:38;;;;;;;2.63;1.38;;;18.50;51.60;;;;;;5142635;27;20168;-80
2022/01/07 02:47:04;;;;;;;3.75;1.65;;;18.50;51.60;;;;;;5142691;28;20168;-80
2022/01/07 02:49:30;;;;;;;2.72;1.20;;;18.50;52.10;;;;;;5126874;28;20156;-80
2022/01/07 02:51:58;;;;;;;1.90;1.40;;;18.50;51.10;;;;;;5125527;28;20209;-80
2022/01/07 02:54:23;;;;;;;2.75;1.20;;;18.50;51.50;;;;;;5142450;27;20164;-80
2022/01/07 02:56:49;;;;;;;1.33;1.05;;;18.50;51.30;;;;;;5142947;27;20211;-80
2022/01/07 02:59:16;;;;;;;1.77;1.27;;;18.50;51.20;;;;;;5125426;28;20188;-80
2022/01/07 03:01:41;;;;;;;2.25;1.13;;;18.50;51.60;;;;;;5142659;27;20207;-80
2022/01/07 03:04:07;;;;;;;2.40;1.27;;;18.50;51.60;;;;;;5108994;28;20168;-80
2022/01/07 03:06:36;;;;;;;1.90;1.30;;;18.50;51.60;;;;;;5125574;28;20159;-79
2022/01/07 03:09:03;;;;;;;1.77;1.05;;;18.50;51.30;;;;;;5159856;27;20168;-81
2022/01/07 03:11:29;;;;;;;2.00;1.10;;;18.40;51.40;;;;;;5142862;28;20160;-80
2022/01/07 03:13:57;;;;;;;2.13;1.15;;;18.50;51.50;;;;;;5125365;28;20160;-80
2022/01/07 03:16:25;;;;;;;1.90;1.20;;;18.40;51.30;;;;;;5125825;28;20163;-80
2022/01/07 03:18:52;;;;;;;2.00;1.10;;;18.40;51.30;;;;;;5141384;28;20183;-80
2022/01/07 03:21:21;;;;;;;2.08;1.10;;;18.50;51.30;;;;;;5125556;28;20206;-80
2022/01/07 03:23:47;;;;;;;1.92;0.95;;;18.50;51.40;;;;;;5159823;27;20160;-80
2022/01/07 03:26:14;;;;;;;2.42;1.42;;;18.50;51.40;;;;;;5108846;28;20156;-80
2022/01/07 03:28:41;;;;;;;3.22;1.10;;;18.50;51.20;;;;;;5126018;28;20611;-80
2022/01/07 03:31:09;;;;;;;3.28;1.00;;;18.50;51.20;;;;;;5142627;27;20578;-80
2022/01/07 03:33:35;;;;;;;3.13;1.25;;;18.40;51.50;;;;;;5159961;27;20174;-80
2022/01/07 03:36:00;;;;;;;1.45;1.00;;;18.40;51.50;;;;;;5142736;28;20227;-79
2022/01/07 03:38:29;;;;;;;2.20;1.20;;;18.50;51.30;;;;;;5142646;27;20194;-80
2022/01/07 03:40:58;;;;;;;1.55;0.98;;;18.50;51.60;;;;;;5142305;27;20237;-80
2022/01/07 03:43:25;;;;;;;3.92;1.60;;;18.40;51.00;;;;;;5142178;27;20235;-80
2022/01/07 03:45:52;;;;;;;2.60;1.33;;;18.40;51.30;;;;;;5142695;27;20163;-80
2022/01/07 03:48:17;;;;;;;1.65;1.10;;;18.40;51.40;;;;;;5142024;27;20145;-80
2022/01/07 03:50:45;;;;;;;2.13;1.27;;;18.40;51.30;;;;;;5126985;28;20164;-80
2022/01/07 03:53:11;;;;;;;3.03;1.00;;;18.40;51.20;;;;;;5146006;27;20205;-80
2022/01/07 03:55:37;;;;;;;2.35;1.30;;;18.40;51.20;;;;;;5146280;27;20172;-80
2022/01/07 03:58:03;;;;;;;1.92;1.30;;;18.40;51.30;;;;;;5128473;28;20299;-80
2022/01/07 04:00:35;;;;;;;2.33;1.27;;;18.40;51.20;;;;;;5145685;27;20654;-80
2022/01/07 04:03:02;;;;;;;3.17;1.10;;;18.40;51.30;;;;;;5146522;27;20168;-80
2022/01/07 04:05:31;;;;;;;2.55;1.30;;;18.40;51.30;;;;;;5128187;27;20200;-79
2022/01/07 04:07:59;;;;;;;2.90;1.02;;;18.40;51.20;;;;;;5129937;28;20491;-80
2022/01/07 04:10:26;;;;;;;1.67;1.05;;;18.40;51.40;;;;;;5145419;27;20626;-80
2022/01/07 04:12:52;;;;;;;3.83;1.00;;;18.50;51.10;;;;;;5111337;28;20179;-80
2022/01/07 04:15:18;;;;;;;1.67;1.00;;;18.40;51.00;;;;;;5129771;28;20182;-80
2022/01/07 04:17:46;;;;;;;2.97;1.20;;;18.40;51.70;;;;;;5145676;27;20571;-80
2022/01/07 04:20:24;;;;;;;2.88;1.33;;;18.30;51.20;;;;;;5111847;28;20603;-80
2022/01/07 04:22:53;;;;;;;1.65;1.10;;;18.40;51.60;;;;;;5128175;28;20221;-80
2022/01/07 04:25:19;;;;;;;3.53;1.10;;;18.30;50.70;;;;;;5145662;27;20229;-80
2022/01/07 04:27:45;;;;;;;2.72;1.23;;;18.40;51.00;;;;;;5145932;27;20156;-80
2022/01/07 04:30:12;;;;;;;2.72;1.10;;;18.40;50.70;;;;;;5128627;28;20147;-80
2022/01/07 04:32:41;;;;;;;3.58;1.30;;;18.50;51.00;;;;;;5144826;27;20172;-80
2022/01/07 04:35:10;;;;;;;1.77;1.00;;;18.40;50.80;;;;;;5145266;27;20148;-79
2022/01/07 04:37:37;;;;;;;1.80;1.00;;;18.40;50.80;;;;;;5127913;28;20239;-80
2022/01/07 04:40:06;;;;;;;3.17;1.25;;;18.50;50.50;;;;;;5127950;28;20241;-80
2022/01/07 04:42:32;;;;;;;1.92;1.00;;;18.50;50.80;;;;;;5145301;27;20189;-80
2022/01/07 04:45:00;;;;;;;2.05;1.10;;;18.50;50.80;;;;;;5146092;27;20156;-80
2022/01/07 04:47:26;;;;;;;1.70;1.20;;;18.50;50.50;;;;;;5110610;28;20168;-80
2022/01/07 04:49:52;;;;;;;2.20;1.23;;;18.50;50.30;;;;;;5110198;28;20183;-80
2022/01/07 04:52:21;;;;;;;2.03;1.00;;;18.60;50.30;;;;;;5127682;28;20176;-80
2022/01/07 04:54:48;;;;;;;1.85;1.10;;;18.50;49.90;;;;;;5144467;27;20288;-80
2022/01/07 04:57:14;;;;;;;1.27;1.00;;;18.50;50.10;;;;;;5144518;27;20223;-80
2022/01/07 04:59:41;;;;;;;1.52;1.15;;;18.60;50.00;;;;;;5127396;28;20717;-80
2022/01/07 05:02:07;;;;;;;1.55;1.10;;;18.60;50.00;;;;;;5143809;27;20175;-80
2022/01/07 05:04:33;;;;;;;1.67;1.08;;;18.60;49.40;;;;;;5127030;28;20236;-80
2022/01/07 05:07:00;;;;;;;1.48;0.90;;;18.60;49.50;;;;;;5145430;27;20186;-80
2022/01/07 05:09:25;;;;;;;2.17;0.95;;;18.70;49.70;;;;;;5144836;27;20220;-80
2022/01/07 05:11:56;;;;;;;1.65;1.20;;;18.60;49.70;;;;;;5144663;27;20160;-80
2022/01/07 05:14:22;;;;;;;1.30;1.00;;;18.70;49.70;;;;;;5161682;27;20164;-80
2022/01/07 05:16:48;;;;;;;1.13;1.02;;;18.70;49.40;;;;;;5145658;27;20160;-80
2022/01/07 05:19:15;;;;;;;1.55;1.10;;;18.70;49.50;;;;;;5127174;28;20180;-80
2022/01/07 05:21:41;;;;;;;1.90;1.13;;;18.70;49.40;;;;;;5109761;28;20164;-80
2022/01/07 05:24:07;;;;;;;1.55;1.02;;;18.70;49.10;;;;;;5126926;28;20171;-80
2022/01/07 05:26:33;;;;;;;2.08;0.90;;;18.70;49.20;;;;;;5144850;27;20227;-79
2022/01/07 05:28:59;;;;;;;1.45;0.95;;;18.70;49.10;;;;;;5108967;28;20172;-80
2022/01/07 05:31:26;;;;;;;3.67;0.98;;;18.70;49.20;;;;;;5144252;27;20160;-79
2022/01/07 05:33:52;;;;;;;1.98;1.10;;;18.70;49.10;;;;;;5109492;28;20199;-80
2022/01/07 05:36:22;;;;;;;1.20;1.00;;;18.80;49.20;;;;;;5143672;27;20148;-80
2022/01/07 05:38:49;;;;;;;1.10;0.88;;;18.80;49.10;;;;;;5126541;28;20229;-79
2022/01/07 05:41:15;;;;;;;1.80;1.00;;;18.70;48.90;;;;;;5126768;28;20176;-80
2022/01/07 05:43:41;;;;;;;2.55;1.17;;;18.70;48.90;;;;;;5126452;28;20518;-80
2022/01/07 05:46:10;;;;;;;2.42;1.10;;;18.70;49.20;;;;;;5126736;28;20183;-80
2022/01/07 05:48:37;;;;;;;1.70;0.98;;;18.70;49.10;;;;;;5143084;27;20697;-80
2022/01/07 05:51:04;;;;;;;1.65;0.90;;;18.70;48.80;;;;;;5143511;27;20237;-81
2022/01/07 05:53:29;;;;;;;1.15;0.90;;;18.80;48.80;;;;;;5144090;27;20239;-80
2022/01/07 05:55:57;;;;;;;2.65;1.10;;;18.80;48.70;;;;;;5126646;28;20182;-80
2022/01/07 05:58:24;;;;;;;1.00;0.70;;;18.80;48.60;;;;;;5145108;27;20226;-80
2022/01/07 06:00:49;;;;;;;1.25;0.80;;;18.70;48.60;;;;;;5163996;27;20162;-80
2022/01/07 06:03:16;;;;;;;2.00;0.93;;;18.70;49.40;;;;;;5164445;27;20151;-80
2022/01/07 06:05:43;;;;;;;1.58;0.82;;;18.80;48.90;;;;;;5164125;27;20211;-80
2022/01/07 06:08:12;;;;;;;2.35;0.88;;;18.80;48.70;;;;;;5147204;27;20211;-80
2022/01/07 06:10:38;;;;;;;1.30;0.70;;;18.80;48.70;;;;;;5147234;27;20167;-80
2022/01/07 06:13:06;;;;;;;1.88;0.82;;;18.80;48.60;;;;;;5153318;27;20171;-79
2022/01/07 06:15:32;;;;;;;1.95;0.90;;;18.80;48.60;;;;;;5108734;28;20168;-79
2022/01/07 06:18:03;;;;;;;3.10;0.90;;;18.80;48.30;;;;;;5074746;28;20257;-79
2022/01/07 06:20:28;;;;;;;1.52;1.00;;;18.80;48.40;;;;;;5125930;28;20179;-79
2022/01/07 06:22:54;;;;;;;2.28;0.90;;;18.90;48.50;;;;;;5142961;27;20163;-80
2022/01/07 06:25:20;;;;;;;1.05;0.88;;;18.90;48.50;;;;;;5126419;28;20165;-79
2022/01/07 06:27:46;;;;;;;2.35;0.95;;;18.80;48.80;;;;;;5142946;27;20247;-79
2022/01/07 06:30:12;;;;;;;2.28;0.82;;;18.80;48.40;;;;;;5108322;28;20190;-79
2022/01/07 06:32:37;;;;;;;1.10;0.95;;;18.80;48.40;;;;;;5126414;28;20160;-79
2022/01/07 06:35:09;;;;;;;2.13;0.90;;;18.80;48.40;;;;;;5117771;28;20161;-79
2022/01/07 06:37:36;;;;;;;1.15;0.70;;;18.80;48.30;;;;;;5107077;28;20149;-80
2022/01/07 06:40:05;;;;;;;1.95;1.00;;;18.80;48.20;;;;;;5104543;28;20181;-79
2022/01/07 06:42:32;;;;;;;1.13;0.80;;;18.80;48.10;;;;;;5102051;28;20164;-80
2022/01/07 06:44:57;;;;;;;1.67;0.90;;;18.80;48.10;;;;;;5108157;28;20164;-79
2022/01/07 06:47:25;;;;;;;1.55;0.95;;;18.80;48.20;;;;;;5107744;28;20246;-80
2022/01/07 06:49:53;;;;;;;1.60;0.80;;;18.80;48.20;;;;;;5107988;28;20300;-80
2022/01/07 06:52:22;;;;;;;1.13;0.85;;;18.80;48.00;;;;;;5125780;28;20156;-80
2022/01/07 06:54:47;;;;;;;0.90;0.73;;;18.80;48.00;;;;;;5120059;28;20171;-80
2022/01/07 06:57:13;;;;;;;1.05;0.80;;;18.90;48.20;;;;;;5133180;27;20266;-80
2022/01/07 06:59:39;;;;;;;1.05;0.75;;;18.80;48.00;;;;;;5146101;28;20182;-80
2022/01/07 07:02:07;;;;;;;1.40;0.95;;;18.80;48.10;;;;;;5144117;28;20167;-80
2022/01/07 07:04:33;;;;;;;2.30;1.00;;;18.80;48.10;;;;;;5104586;28;20239;-81
2022/01/07 07:07:02;;;;;;;1.42;0.88;;;18.80;48.00;;;;;;5125632;28;20618;-80
2022/01/07 07:09:29;;;;;;;2.83;0.98;;;18.90;47.70;;;;;;5125336;28;20711;-80
2022/01/07 07:11:56;;;;;;;2.25;1.33;;;18.90;47.50;;;;;;5126034;28;20176;-80
2022/01/07 07:14:23;;;;;;;0.75;0.70;;;18.90;47.90;;;;;;5142963;28;20172;-80
2022/01/07 07:16:48;;;;;;;2.08;0.85;;;18.90;47.90;;;;;;5159932;27;20164;-80
2022/01/07 07:19:14;;;;;;;2.25;0.98;;;18.90;47.80;;;;;;5152293;27;20214;-79
2022/01/07 07:21:42;;;;;;;0.98;0.77;;;18.90;47.80;;;;;;5125488;28;20232;-80
2022/01/07 07:24:08;;;;;;;1.10;0.80;;;18.90;47.60;;;;;;5142001;28;20165;-80
2022/01/07 07:26:34;;;;;;;1.33;0.93;;;18.90;47.80;;;;;;5129487;28;20171;-79
2022/01/07 07:29:00;;;;;;;2.47;0.98;;;18.90;47.80;;;;;;5138507;27;20179;-82
2022/01/07 07:31:28;;;;;;;1.33;0.95;;;18.90;47.50;;;;;;5163743;27;20174;-79
2022/01/07 07:34:08;;;;;;;2.38;0.90;;;18.80;47.30;;;;;;5115650;27;20192;-79
2022/01/07 07:36:35;;;;;;;1.80;1.20;;;18.90;47.50;;;;;;5141599;27;20182;-80
2022/01/07 07:39:09;;;;;;;1.10;0.85;;;18.90;47.80;;;;;;5131588;27;20255;-80
2022/01/07 07:41:36;;;;;;;2.20;1.30;;;18.90;47.10;;;;;;5130016;27;20162;-79
2022/01/07 07:44:02;;;;;;;0.95;0.77;;;18.90;47.80;;;;;;5126323;28;20164;-81
2022/01/07 07:46:30;;;;;;;1.23;0.98;;;18.90;47.60;;;;;;5128639;28;20216;-81
2022/01/07 07:48:56;;;;;;;1.02;0.80;;;18.90;47.30;;;;;;5126784;28;20160;-80
2022/01/07 07:51:21;;;;;;;1.05;0.90;;;18.90;47.30;;;;;;5125952;28;20176;-80
2022/01/07 07:53:53;;;;;;;1.02;0.57;;;18.90;47.30;;;;;;5127216;28;20152;-80
2022/01/07 07:56:19;;;;;;;1.00;0.85;;;19.00;47.40;;;;;;5142831;27;20272;-80
2022/01/07 07:58:44;;;;;;;0.98;0.70;;;19.00;47.30;;;;;;5108068;28;20231;-79
2022/01/07 08:01:12;;;;;;;1.20;0.90;;;19.00;47.10;;;;;;5120584;28;20195;-79
2022/01/07 08:03:40;;;;;;;1.38;0.95;;;18.90;47.10;;;;;;5111463;28;20160;-78
2022/01/07 08:06:07;;;;;;;2.75;1.20;;;19.00;47.20;;;;;;5110476;28;20179;-79
2022/01/07 08:08:33;;;;;;;1.27;0.90;;;19.00;47.20;;;;;;5129440;28;20160;-79
2022/01/07 08:11:01;;;;;;;1.98;0.95;;;19.00;47.10;;;;;;5125645;28;20171;-78
2022/01/07 08:13:29;;;;;;;3.08;1.40;;;19.00;47.10;;;;;;5110144;28;20144;-78
2022/01/07 08:15:58;;;;;;;1.60;1.05;;;19.00;47.30;;;;;;5127009;28;20171;-78
2022/01/07 08:18:32;;;;;;;2.95;1.48;;;19.00;47.60;;;;;;5109616;28;20634;-78
2022/01/07 08:21:04;;;;;;;2.80;1.25;;;19.00;47.60;;;;;;5091929;28;20174;-79
2022/01/07 08:23:30;;;;;;;1.20;0.90;;;19.00;47.60;;;;;;5109761;28;20153;-80
2022/01/07 08:25:56;;;;;;;2.03;0.85;;;19.00;47.60;;;;;;5106292;28;20534;-79
2022/01/07 08:28:25;;;;;;;0.82;0.77;;;19.00;47.30;;;;;;5138850;27;20167;-79
2022/01/07 08:31:26;;;;;;;0.77;0.77;;;19.00;47.40;;;;;;5127644;28;20145;-79
2022/01/07 08:36:16;;;;;;;1.65;0.80;;;19.00;47.30;;;;;;5096526;28;20160;-78
2022/01/07 08:38:42;;;;;;;1.70;1.00;;;19.00;47.50;;;;;;5110295;28;20200;-79
2022/01/07 08:41:08;;;;;;;0.80;0.70;;;19.00;47.40;;;;;;5093726;28;20160;-79
2022/01/07 08:43:34;;;;;;;1.00;0.80;;;19.00;47.20;;;;;;5110242;28;20175;-79
2022/01/07 08:45:59;;;;;;;3.53;0.90;;;19.00;47.40;;;;;;5128953;28;20155;-79
2022/01/07 08:48:28;;;;;;;1.95;0.85;;;19.00;47.10;;;;;;5093967;28;20156;-79
2022/01/07 08:50:55;;;;;;;1.23;0.88;;;19.00;47.40;;;;;;5092118;28;20175;-80
2022/01/07 08:53:21;;;;;;;2.35;1.10;;;19.00;47.20;;;;;;5088314;28;20186;-82
2022/01/07 08:55:47;;;;;;;1.35;0.80;;;19.00;47.20;;;;;;5087959;28;20159;-82
2022/01/07 08:58:14;;;;;;;1.20;1.00;;;19.00;47.50;;;;;;5103898;28;20579;-80
2022/01/07 09:00:42;;;;;;;1.15;0.88;;;19.00;47.10;;;;;;5102294;28;20680;-80
2022/01/07 09:03:08;;;;;;;1.10;0.85;;;19.00;47.40;;;;;;5102473;28;20176;-81
2022/01/07 09:05:34;;;;;;;1.05;0.80;;;19.00;46.90;;;;;;5107594;28;20208;-80
2022/01/07 09:08:07;;;;;;;1.38;0.80;;;19.00;47.20;;;;;;5108419;28;20148;-80
2022/01/07 09:10:33;;;;;;;0.98;0.80;;;19.00;46.90;;;;;;5108189;28;20155;-81
2022/01/07 09:12:59;;;;;;;1.35;0.90;;;19.00;47.20;;;;;;5108605;28;20148;-79
2022/01/07 09:15:26;;;;;;;1.92;0.90;;;19.10;47.20;;;;;;5103767;28;20175;-80
2022/01/07 09:17:52;;;;;;;1.23;0.90;;;19.10;47.10;;;;;;5105550;28;20167;-81
2022/01/07 09:20:20;;;;;;;1.05;0.85;;;19.10;47.20;;;;;;5102841;28;20191;-80
2022/01/07 09:22:45;;;;;;;1.10;1.00;;;19.10;47.50;;;;;;5105488;28;20152;-81
2022/01/07 09:25:11;;;;;;;1.70;0.73;;;19.10;47.20;;;;;;5100034;28;20167;-81
2022/01/07 09:27:40;;;;;;;1.08;0.80;;;19.10;47.20;;;;;;5103124;28;20156;-81
2022/01/07 09:30:07;;;;;;;2.72;0.80;;;19.10;47.10;;;;;;5106251;28;20167;-81
2022/01/07 09:32:33;;;;;;;1.92;0.90;;;19.20;47.20;;;;;;5085723;28;20171;-82
2022/01/07 09:34:59;;;;;;;1.85;0.95;;;19.20;47.40;;;;;;5082479;28;20249;-82
2022/01/07 09:37:24;;;;;;;2.03;1.00;;;19.20;47.10;;;;;;5083766;28;20562;-83
2022/01/07 09:39:50;;;;;;;1.23;0.80;;;19.20;46.90;;;;;;5088003;28;20555;-80
2022/01/07 09:42:18;;;;;;;2.63;1.08;;;19.20;47.10;;;;;;5107090;28;20164;-81
2022/01/07 09:44:46;;;;;;;1.25;1.00;;;19.20;46.40;;;;;;5104476;28;20148;-80
2022/01/07 09:47:12;;;;;;;0.90;0.77;;;19.20;46.50;;;;;;5084970;28;20184;-81
2022/01/07 09:49:39;;;;;;;1.92;1.30;;;19.30;46.40;;;;;;5100945;28;20179;-80
2022/01/07 09:52:06;;;;;;;2.33;0.98;;;19.30;46.40;;;;;;5102925;28;20165;-80
2022/01/07 09:54:33;;;;;;;1.83;0.90;;;19.30;46.40;;;;;;5104010;28;20198;-80
2022/01/07 09:56:59;;;;;;;1.30;0.90;;;19.20;46.20;;;;;;5088442;28;20223;-81
2022/01/07 09:59:24;;;;;;;1.10;0.90;;;19.30;46.00;;;;;;5101006;28;20203;-82
2022/01/07 10:01:55;;;;;;;2.15;1.25;;;19.30;45.70;;;;;;5120491;28;20202;-80
2022/01/07 10:04:29;;;;;;;2.88;1.02;;;19.30;45.80;;;;;;5125096;28;20179;-81
2022/01/07 10:07:16;;;;;;;1.10;0.98;;;19.40;46.10;;;;;;5120013;28;20661;-82
2022/01/07 10:09:58;;;;;;;0.93;0.80;;;19.40;45.80;;;;;;5122884;28;20167;-81
2022/01/07 10:12:25;;;;;;;1.30;1.00;;;19.40;45.20;;;;;;5126331;28;20251;-79
2022/01/07 10:15:23;;;;;;;1.73;1.00;;;19.40;44.50;;;;;;5125641;28;20615;-79
2022/01/07 10:18:01;;;;;;;1.40;1.00;;;19.40;45.10;;;;;;5126485;28;20167;-79
2022/01/07 10:20:44;;;;;;;0.85;0.77;;;19.40;44.20;;;;;;5120030;28;20261;-79
2022/01/07 10:23:14;;;;;;;1.58;1.10;;;19.40;44.90;;;;;;5118236;28;20144;-80
2022/01/07 10:25:42;;;;;;;4.93;1.17;;;19.40;45.60;;;;;;5138164;27;20171;-81
2022/01/07 10:28:11;;;;;;;2.55;0.80;;;19.40;45.40;;;;;;5126240;28;20148;-81
2022/01/07 10:30:42;;;;;;;1.02;0.85;;;19.40;45.30;;;;;;5124830;28;20187;-81
2022/01/07 10:33:21;;;;;;;0.90;0.70;;;19.40;45.40;;;;;;5106682;28;20498;-80
2022/01/07 10:35:51;;;;;;;1.13;1.02;;;19.50;44.90;;;;;;5123699;28;20171;-80
2022/01/07 10:38:19;;;;;;;0.88;0.80;;;19.50;44.60;;;;;;5122384;28;20203;-83
2022/01/07 10:40:47;;;;;;;1.27;1.00;;;19.50;44.40;;;;;;5106360;28;20156;-82
2022/01/07 10:43:25;;;;;;;6.57;1.13;;;19.50;44.40;;;;;;5120199;28;20172;-80
2022/01/07 10:45:55;;;;;;;1.40;0.93;;;19.50;43.80;;;;;;5124527;28;20271;-81
2022/01/07 10:48:22;;;;;;;3.03;0.80;;;19.50;43.40;;;;;;5122077;28;20168;-83
2022/01/07 10:50:50;;;;;;;2.10;0.80;;;19.60;44.50;;;;;;5119861;28;20518;-82
2022/01/07 10:53:27;;;;;;;1.10;0.98;;;19.50;45.00;;;;;;5105776;28;20170;-82
2022/01/07 10:56:08;;;;;;;1.10;0.90;;;19.60;44.80;;;;;;5121411;28;20159;-82
2022/01/07 10:58:56;;;;;;;1.67;0.80;;;19.60;45.10;;;;;;5121911;28;20207;-80
2022/01/07 11:01:44;;;;;;;1.63;1.08;;;19.60;45.20;;;;;;5124175;28;20160;-82
2022/01/07 11:04:13;;;;;;;1.05;0.85;;;19.60;45.00;;;;;;5124850;28;20156;-82
2022/01/07 11:06:39;;;;;;;3.08;0.98;;;19.60;44.70;;;;;;5124016;27;20247;-81
2022/01/07 11:09:09;;;;;;;1.13;0.80;;;19.60;43.90;;;;;;5120364;28;20243;-82
2022/01/07 11:11:34;;;;;;;1.80;1.00;;;19.70;44.80;;;;;;5118649;28;20160;-83
2022/01/07 11:14:05;;;;;;;1.80;0.70;;;19.60;43.80;;;;;;5119530;28;20224;-82
2022/01/07 11:16:31;;;;;;;1.05;0.93;;;19.70;44.30;;;;;;5120143;28;20156;-82
2022/01/07 11:18:59;;;;;;;4.00;0.93;;;19.60;44.10;;;;;;5118890;28;20593;-82
2022/01/07 11:21:24;;;;;;;1.42;0.70;;;19.60;45.40;;;;;;5123122;28;20607;-82
2022/01/07 11:23:53;;;;;;;2.10;0.80;;;19.60;45.00;;;;;;5120708;28;20156;-83
2022/01/07 11:26:19;;;;;;;2.13;0.93;;;19.60;44.40;;;;;;5105325;28;20159;-81
2022/01/07 11:28:56;;;;;;;0.80;0.73;;;19.60;44.20;;;;;;5118896;28;20195;-80
2022/01/07 11:31:22;;;;;;;1.40;0.88;;;19.60;45.10;;;;;;5120687;28;20156;-81
2022/01/07 11:33:47;;;;;;;1.15;1.00;;;19.60;44.70;;;;;;5119217;28;20163;-81
2022/01/07 11:36:33;;;;;;;1.55;0.90;;;19.60;44.30;;;;;;5118419;28;20202;-81
2022/01/07 11:39:00;;;;;;;0.80;0.80;;;19.60;43.30;;;;;;5122908;27;20179;-82
2022/01/07 11:41:51;;;;;;;1.60;0.88;;;19.70;43.30;;;;;;5124574;27;20155;-81
2022/01/07 11:44:26;;;;;;;1.10;0.95;;;19.60;43.90;;;;;;5127086;27;20238;-83
2022/01/07 11:47:23;;;;;;;1.08;0.80;;;19.60;44.50;;;;;;5109956;27;20987;-81
2022/01/07 11:50:06;;;;;;;1.30;0.80;;;19.70;44.90;;;;;;5123842;27;20152;-81
2022/01/07 11:52:36;;;;;;;1.52;0.90;;;19.70;44.80;;;;;;5105108;28;20161;-83
2022/01/07 11:55:21;;;;;;;2.35;1.13;;;19.60;44.40;;;;;;5104307;28;20160;-81
2022/01/07 11:57:49;;;;;;;1.80;1.00;;;19.60;44.10;;;;;;5100612;28;20277;-83
2022/01/07 12:00:35;;;;;;;1.55;0.93;;;19.70;44.20;;;;;;5098751;28;20692;-81
2022/01/07 12:03:01;;;;;;;1.98;0.95;;;19.70;44.50;;;;;;5099597;28;20641;-82
2022/01/07 12:05:31;;;;;;;3.85;1.00;;;19.60;44.40;;;;;;5096413;28;20214;-82
2022/01/07 12:07:58;;;;;;;1.55;0.98;;;19.60;45.20;;;;;;5101175;28;20527;-83
2022/01/07 12:10:25;;;;;;;3.03;1.13;;;19.60;44.80;;;;;;5102292;28;20165;-83
2022/01/07 12:12:58;;;;;;;4.22;1.05;;;19.60;44.60;;;;;;5098921;28;20172;-83
2022/01/07 12:15:24;;;;;;;11.65;1.50;;;19.60;45.10;;;;;;5100740;28;20594;-83
2022/01/07 12:17:50;;;;;;;13.55;1.70;;;19.60;45.20;;;;;;5101945;28;20202;-83
2022/01/07 12:20:46;;;;;;;15.35;2.10;;;19.60;44.90;;;;;;5084120;28;20188;-83
2022/01/07 12:23:19;;;;;;;11.65;1.52;;;19.70;43.90;;;;;;5097622;28;20213;-82
2022/01/07 12:25:49;;;;;;;20.23;2.30;;;19.60;44.10;;;;;;5097300;28;20153;-83
2022/01/07 12:28:17;;;;;;;12.40;1.98;;;19.70;45.10;;;;;;5099546;28;20567;-83
2022/01/07 12:30:49;;;;;;;12.68;1.60;;;19.70;44.80;;;;;;5104160;28;20215;-83
2022/01/07 12:33:15;;;;;;;10.88;1.70;;;19.60;45.90;;;;;;5103958;28;20152;-83
2022/01/07 12:35:41;;;;;;;13.38;1.85;;;19.70;45.00;;;;;;5101676;28;20244;-84
2022/01/07 12:38:16;;;;;;;15.57;1.88;;;19.70;45.50;;;;;;5102553;28;20187;-83
2022/01/07 12:40:53;;;;;;;11.43;1.58;;;19.70;44.60;;;;;;5123222;28;20285;-82
2022/01/07 12:43:22;;;;;;;9.75;1.50;;;19.70;44.40;;;;;;5122934;28;20159;-82
2022/01/07 12:45:56;;;;;;;7.65;1.70;;;19.70;45.70;;;;;;5104375;28;20148;-81
2022/01/07 12:48:39;;;;;;;11.25;2.25;;;19.70;45.30;;;;;;5121240;28;20160;-83
2022/01/07 12:51:06;;;;;;;6.38;1.20;;;19.70;45.00;;;;;;5106195;28;20251;-83
2022/01/07 12:53:34;;;;;;;11.45;1.38;;;19.70;44.50;;;;;;5126072;28;20153;-82